sensor_id;sensor_type;location;lat;lon;timestamp;temperature;humidity
60309;DHT22;50313;52.894;6.492;2022-09-09T00:04:31;13.40;99.90
60309;DHT22;50313;52.894;6.492;2022-09-09T00:09:52;13.30;99.90
60309;DHT22;50313;52.894;6.492;2022-09-09T00:15:54;13.30;99.90
60309;DHT22;50313;52.894;6.492;2022-09-09T00:21:34;13.20;99.90
60309;DHT22;50313;52.894;6.492;2022-09-09T00:24:24;13.20;99.90
60309;DHT22;50313;52.894;6.492;2022-09-09T00:26:52;13.10;99.90
60309;DHT22;50313;52.894;6.492;2022-09-09T00:31:51;13.10;99.90
60309;DHT22;50313;52.894;6.492;2022-09-09T00:34:24;13.00;99.90
60309;DHT22;50313;52.894;6.492;2022-09-09T00:36:53;13.00;99.90
60309;DHT22;50313;52.894;6.492;2022-09-09T00:39:31;13.10;99.90
60309;DHT22;50313;52.894;6.492;2022-09-09T00:47:40;13.10;99.90
60309;DHT22;50313;52.894;6.492;2022-09-09T00:53:22;13.20;99.90
60309;DHT22;50313;52.894;6.492;2022-09-09T01:01:19;13.20;99.90
60309;DHT22;50313;52.894;6.492;2022-09-09T01:03:53;13.20;99.90
60309;DHT22;50313;52.894;6.492;2022-09-09T01:06:36;13.30;99.90
60309;DHT22;50313;52.894;6.492;2022-09-09T01:09:24;13.30;99.90
60309;DHT22;50313;52.894;6.492;2022-09-09T01:27:18;13.70;99.90
60309;DHT22;50313;52.894;6.492;2022-09-09T01:29:45;13.70;99.90
60309;DHT22;50313;52.894;6.492;2022-09-09T01:35:07;13.80;99.90
60309;DHT22;50313;52.894;6.492;2022-09-09T01:37:35;13.80;99.90
60309;DHT22;50313;52.894;6.492;2022-09-09T01:40:00;13.90;99.90
60309;DHT22;50313;52.894;6.492;2022-09-09T01:42:26;13.90;99.90
60309;DHT22;50313;52.894;6.492;2022-09-09T01:44:52;13.90;99.90
60309;DHT22;50313;52.894;6.492;2022-09-09T01:47:20;14.00;99.90
60309;DHT22;50313;52.894;6.492;2022-09-09T01:49:45;14.00;99.90
60309;DHT22;50313;52.894;6.492;2022-09-09T01:52:11;14.10;99.90
60309;DHT22;50313;52.894;6.492;2022-09-09T01:54:37;14.10;99.90
60309;DHT22;50313;52.894;6.492;2022-09-09T01:57:17;14.10;99.90
60309;DHT22;50313;52.894;6.492;2022-09-09T02:00:08;14.20;99.90
60309;DHT22;50313;52.894;6.492;2022-09-09T02:02:55;14.20;99.90
60309;DHT22;50313;52.894;6.492;2022-09-09T02:05:41;14.20;99.90
60309;DHT22;50313;52.894;6.492;2022-09-09T02:08:20;14.20;99.90
60309;DHT22;50313;52.894;6.492;2022-09-09T02:11:11;14.20;99.90
60309;DHT22;50313;52.894;6.492;2022-09-09T02:13:39;14.20;99.90
60309;DHT22;50313;52.894;6.492;2022-09-09T02:16:13;14.30;99.90
60309;DHT22;50313;52.894;6.492;2022-09-09T02:19:14;14.30;99.90
60309;DHT22;50313;52.894;6.492;2022-09-09T02:21:44;14.30;99.90
60309;DHT22;50313;52.894;6.492;2022-09-09T02:24:12;14.30;99.90
60309;DHT22;50313;52.894;6.492;2022-09-09T02:26:42;14.40;99.90
60309;DHT22;50313;52.894;6.492;2022-09-09T02:29:20;14.30;99.90
60309;DHT22;50313;52.894;6.492;2022-09-09T02:31:49;14.30;99.90
60309;DHT22;50313;52.894;6.492;2022-09-09T02:34:18;14.40;99.90
60309;DHT22;50313;52.894;6.492;2022-09-09T02:36:46;14.40;99.90
60309;DHT22;50313;52.894;6.492;2022-09-09T02:39:12;14.40;99.90
60309;DHT22;50313;52.894;6.492;2022-09-09T02:41:40;14.40;99.90
60309;DHT22;50313;52.894;6.492;2022-09-09T02:44:14;14.40;99.90
60309;DHT22;50313;52.894;6.492;2022-09-09T02:46:50;14.40;99.90
60309;DHT22;50313;52.894;6.492;2022-09-09T02:49:27;14.40;99.90
60309;DHT22;50313;52.894;6.492;2022-09-09T02:52:01;14.40;99.90
60309;DHT22;50313;52.894;6.492;2022-09-09T02:54:31;14.40;99.90
60309;DHT22;50313;52.894;6.492;2022-09-09T02:57:23;14.30;99.90
60309;DHT22;50313;52.894;6.492;2022-09-09T02:59:50;14.40;99.90
60309;DHT22;50313;52.894;6.492;2022-09-09T03:02:17;14.40;99.90
60309;DHT22;50313;52.894;6.492;2022-09-09T03:04:44;14.40;99.90
60309;DHT22;50313;52.894;6.492;2022-09-09T03:07:10;14.30;99.90
60309;DHT22;50313;52.894;6.492;2022-09-09T03:09:36;14.40;99.90
60309;DHT22;50313;52.894;6.492;2022-09-09T03:12:02;14.40;99.90
60309;DHT22;50313;52.894;6.492;2022-09-09T03:14:29;14.40;99.90
60309;DHT22;50313;52.894;6.492;2022-09-09T03:16:55;14.40;99.90
60309;DHT22;50313;52.894;6.492;2022-09-09T03:19:23;14.30;99.90
60309;DHT22;50313;52.894;6.492;2022-09-09T03:21:50;14.30;99.90
60309;DHT22;50313;52.894;6.492;2022-09-09T03:24:15;14.30;99.90
60309;DHT22;50313;52.894;6.492;2022-09-09T03:26:42;14.30;99.90
60309;DHT22;50313;52.894;6.492;2022-09-09T03:29:11;14.30;99.90
60309;DHT22;50313;52.894;6.492;2022-09-09T03:31:38;14.30;99.90
60309;DHT22;50313;52.894;6.492;2022-09-09T03:34:05;14.30;99.90
60309;DHT22;50313;52.894;6.492;2022-09-09T03:36:31;14.30;99.90
60309;DHT22;50313;52.894;6.492;2022-09-09T03:38:57;14.30;99.90
60309;DHT22;50313;52.894;6.492;2022-09-09T03:41:24;14.30;99.90
60309;DHT22;50313;52.894;6.492;2022-09-09T03:43:50;14.30;99.90
60309;DHT22;50313;52.894;6.492;2022-09-09T03:46:17;14.30;99.90
60309;DHT22;50313;52.894;6.492;2022-09-09T03:48:43;14.30;99.90
60309;DHT22;50313;52.894;6.492;2022-09-09T03:51:10;14.30;99.90
60309;DHT22;50313;52.894;6.492;2022-09-09T03:53:36;14.30;99.90
60309;DHT22;50313;52.894;6.492;2022-09-09T03:56:04;14.30;99.90
60309;DHT22;50313;52.894;6.492;2022-09-09T03:58:33;14.30;99.90
60309;DHT22;50313;52.894;6.492;2022-09-09T04:01:01;14.30;99.90
60309;DHT22;50313;52.894;6.492;2022-09-09T04:03:27;14.30;99.90
60309;DHT22;50313;52.894;6.492;2022-09-09T04:05:55;14.30;99.90
60309;DHT22;50313;52.894;6.492;2022-09-09T04:08:22;14.30;99.90
60309;DHT22;50313;52.894;6.492;2022-09-09T04:10:48;14.30;99.90
60309;DHT22;50313;52.894;6.492;2022-09-09T04:13:15;14.30;99.90
60309;DHT22;50313;52.894;6.492;2022-09-09T04:15:42;14.30;99.90
60309;DHT22;50313;52.894;6.492;2022-09-09T04:18:09;14.20;99.90
60309;DHT22;50313;52.894;6.492;2022-09-09T04:20:35;14.20;99.90
60309;DHT22;50313;52.894;6.492;2022-09-09T04:23:01;14.20;99.90
60309;DHT22;50313;52.894;6.492;2022-09-09T04:25:27;14.30;99.90
60309;DHT22;50313;52.894;6.492;2022-09-09T04:27:56;14.20;99.90
60309;DHT22;50313;52.894;6.492;2022-09-09T04:30:23;14.20;99.90
60309;DHT22;50313;52.894;6.492;2022-09-09T04:32:49;14.20;99.90
60309;DHT22;50313;52.894;6.492;2022-09-09T04:35:14;14.20;99.90
60309;DHT22;50313;52.894;6.492;2022-09-09T04:37:40;14.20;99.90
60309;DHT22;50313;52.894;6.492;2022-09-09T04:40:07;14.20;99.90
60309;DHT22;50313;52.894;6.492;2022-09-09T04:42:39;14.20;99.90
60309;DHT22;50313;52.894;6.492;2022-09-09T04:45:06;14.20;99.90
60309;DHT22;50313;52.894;6.492;2022-09-09T04:47:32;14.20;99.90
60309;DHT22;50313;52.894;6.492;2022-09-09T04:49:59;14.10;99.90
60309;DHT22;50313;52.894;6.492;2022-09-09T04:52:26;14.10;99.90
60309;DHT22;50313;52.894;6.492;2022-09-09T04:54:51;14.10;99.90
60309;DHT22;50313;52.894;6.492;2022-09-09T04:57:19;14.10;99.90
60309;DHT22;50313;52.894;6.492;2022-09-09T04:59:45;14.10;99.90
60309;DHT22;50313;52.894;6.492;2022-09-09T05:02:11;14.10;99.90
60309;DHT22;50313;52.894;6.492;2022-09-09T05:04:37;14.00;99.90
60309;DHT22;50313;52.894;6.492;2022-09-09T05:07:03;14.00;99.90
60309;DHT22;50313;52.894;6.492;2022-09-09T05:09:28;14.00;99.90
60309;DHT22;50313;52.894;6.492;2022-09-09T05:11:55;14.00;99.90
60309;DHT22;50313;52.894;6.492;2022-09-09T05:14:21;14.00;99.90
60309;DHT22;50313;52.894;6.492;2022-09-09T05:16:48;13.90;99.90
60309;DHT22;50313;52.894;6.492;2022-09-09T05:19:15;14.00;99.90
60309;DHT22;50313;52.894;6.492;2022-09-09T05:21:44;13.90;99.90
60309;DHT22;50313;52.894;6.492;2022-09-09T05:24:10;13.90;99.90
60309;DHT22;50313;52.894;6.492;2022-09-09T05:26:36;13.90;99.90
60309;DHT22;50313;52.894;6.492;2022-09-09T05:29:02;13.90;99.90
60309;DHT22;50313;52.894;6.492;2022-09-09T05:31:29;13.90;99.90
60309;DHT22;50313;52.894;6.492;2022-09-09T05:33:55;13.90;99.90
60309;DHT22;50313;52.894;6.492;2022-09-09T05:36:22;13.90;99.90
60309;DHT22;50313;52.894;6.492;2022-09-09T05:38:48;13.80;99.90
60309;DHT22;50313;52.894;6.492;2022-09-09T05:41:16;13.80;99.90
60309;DHT22;50313;52.894;6.492;2022-09-09T05:43:43;13.90;99.90
60309;DHT22;50313;52.894;6.492;2022-09-09T05:46:11;13.90;99.90
60309;DHT22;50313;52.894;6.492;2022-09-09T05:48:39;13.90;99.90
60309;DHT22;50313;52.894;6.492;2022-09-09T05:51:08;13.90;99.90
60309;DHT22;50313;52.894;6.492;2022-09-09T05:53:34;14.00;99.90
60309;DHT22;50313;52.894;6.492;2022-09-09T05:56:11;14.00;99.90
60309;DHT22;50313;52.894;6.492;2022-09-09T05:58:37;14.00;99.90
60309;DHT22;50313;52.894;6.492;2022-09-09T06:01:12;14.10;99.90
60309;DHT22;50313;52.894;6.492;2022-09-09T06:03:42;14.10;99.90
60309;DHT22;50313;52.894;6.492;2022-09-09T06:06:11;14.10;99.90
60309;DHT22;50313;52.894;6.492;2022-09-09T06:08:38;14.20;99.90
60309;DHT22;50313;52.894;6.492;2022-09-09T06:11:09;14.10;99.90
60309;DHT22;50313;52.894;6.492;2022-09-09T06:13:35;14.20;99.90
60309;DHT22;50313;52.894;6.492;2022-09-09T06:16:03;14.20;99.90
60309;DHT22;50313;52.894;6.492;2022-09-09T06:18:29;14.20;99.90
60309;DHT22;50313;52.894;6.492;2022-09-09T06:20:59;14.20;99.90
60309;DHT22;50313;52.894;6.492;2022-09-09T06:23:26;14.20;99.90
60309;DHT22;50313;52.894;6.492;2022-09-09T06:26:04;14.30;99.90
60309;DHT22;50313;52.894;6.492;2022-09-09T06:28:32;14.30;99.90
60309;DHT22;50313;52.894;6.492;2022-09-09T06:30:59;14.40;99.90
60309;DHT22;50313;52.894;6.492;2022-09-09T06:33:25;14.40;99.90
60309;DHT22;50313;52.894;6.492;2022-09-09T06:35:52;14.50;99.90
60309;DHT22;50313;52.894;6.492;2022-09-09T06:38:18;14.40;99.90
60309;DHT22;50313;52.894;6.492;2022-09-09T06:40:53;14.50;99.90
60309;DHT22;50313;52.894;6.492;2022-09-09T06:43:27;14.50;99.90
60309;DHT22;50313;52.894;6.492;2022-09-09T06:46:04;14.50;99.90
60309;DHT22;50313;52.894;6.492;2022-09-09T06:48:29;14.60;99.90
60309;DHT22;50313;52.894;6.492;2022-09-09T06:53:31;14.70;99.90
60309;DHT22;50313;52.894;6.492;2022-09-09T06:58:37;14.70;99.90
60309;DHT22;50313;52.894;6.492;2022-09-09T07:01:08;14.70;99.90
60309;DHT22;50313;52.894;6.492;2022-09-09T07:03:34;14.80;99.90
60309;DHT22;50313;52.894;6.492;2022-09-09T07:06:01;14.90;99.90
60309;DHT22;50313;52.894;6.492;2022-09-09T07:08:26;15.00;99.90
60309;DHT22;50313;52.894;6.492;2022-09-09T07:10:52;15.10;99.90
60309;DHT22;50313;52.894;6.492;2022-09-09T07:13:25;15.20;99.90
60309;DHT22;50313;52.894;6.492;2022-09-09T07:15:52;15.20;99.90
60309;DHT22;50313;52.894;6.492;2022-09-09T07:18:21;15.30;99.90
60309;DHT22;50313;52.894;6.492;2022-09-09T07:20:53;15.50;99.90
60309;DHT22;50313;52.894;6.492;2022-09-09T07:23:20;15.50;99.90
60309;DHT22;50313;52.894;6.492;2022-09-09T07:25:46;15.60;99.90
60309;DHT22;50313;52.894;6.492;2022-09-09T07:28:13;15.70;99.90
60309;DHT22;50313;52.894;6.492;2022-09-09T07:30:39;15.70;99.90
60309;DHT22;50313;52.894;6.492;2022-09-09T07:33:06;15.70;99.90
60309;DHT22;50313;52.894;6.492;2022-09-09T07:35:32;15.80;99.90
60309;DHT22;50313;52.894;6.492;2022-09-09T07:38:00;15.80;99.90
60309;DHT22;50313;52.894;6.492;2022-09-09T07:40:26;15.80;99.90
60309;DHT22;50313;52.894;6.492;2022-09-09T07:42:52;15.90;99.90
60309;DHT22;50313;52.894;6.492;2022-09-09T07:45:19;15.80;99.90
60309;DHT22;50313;52.894;6.492;2022-09-09T07:47:44;15.90;99.90
60309;DHT22;50313;52.894;6.492;2022-09-09T07:50:10;16.00;99.90
60309;DHT22;50313;52.894;6.492;2022-09-09T07:52:37;16.10;99.90
60309;DHT22;50313;52.894;6.492;2022-09-09T07:55:03;16.20;99.90
60309;DHT22;50313;52.894;6.492;2022-09-09T07:57:30;16.20;99.90
60309;DHT22;50313;52.894;6.492;2022-09-09T07:59:56;16.40;99.90
60309;DHT22;50313;52.894;6.492;2022-09-09T08:02:23;16.60;99.90
60309;DHT22;50313;52.894;6.492;2022-09-09T08:04:50;16.60;99.90
60309;DHT22;50313;52.894;6.492;2022-09-09T08:07:17;16.80;99.90
60309;DHT22;50313;52.894;6.492;2022-09-09T08:09:43;16.90;99.90
60309;DHT22;50313;52.894;6.492;2022-09-09T08:12:09;16.70;99.90
60309;DHT22;50313;52.894;6.492;2022-09-09T08:14:36;16.80;99.90
60309;DHT22;50313;52.894;6.492;2022-09-09T08:17:02;16.70;99.90
60309;DHT22;50313;52.894;6.492;2022-09-09T08:19:28;16.90;99.90
60309;DHT22;50313;52.894;6.492;2022-09-09T08:21:59;16.90;99.90
60309;DHT22;50313;52.894;6.492;2022-09-09T08:24:27;16.90;99.90
60309;DHT22;50313;52.894;6.492;2022-09-09T08:26:53;16.90;99.90
60309;DHT22;50313;52.894;6.492;2022-09-09T08:29:19;16.90;99.90
60309;DHT22;50313;52.894;6.492;2022-09-09T08:31:50;16.90;99.90
60309;DHT22;50313;52.894;6.492;2022-09-09T08:34:17;17.10;99.90
60309;DHT22;50313;52.894;6.492;2022-09-09T08:36:46;17.20;99.90
60309;DHT22;50313;52.894;6.492;2022-09-09T08:39:14;17.50;99.90
60309;DHT22;50313;52.894;6.492;2022-09-09T09:09:31;18.00;99.90
60309;DHT22;50313;52.894;6.492;2022-09-09T09:12:01;18.00;99.90
60309;DHT22;50313;52.894;6.492;2022-09-09T09:14:34;18.00;99.90
60309;DHT22;50313;52.894;6.492;2022-09-09T09:17:06;18.10;99.90
60309;DHT22;50313;52.894;6.492;2022-09-09T09:19:35;17.90;99.90
60309;DHT22;50313;52.894;6.492;2022-09-09T09:27:21;18.10;99.90
60309;DHT22;50313;52.894;6.492;2022-09-09T09:29:50;18.20;99.90
60309;DHT22;50313;52.894;6.492;2022-09-09T09:32:18;18.20;99.90
60309;DHT22;50313;52.894;6.492;2022-09-09T09:34:53;18.30;99.90
60309;DHT22;50313;52.894;6.492;2022-09-09T09:37:34;18.40;99.90
60309;DHT22;50313;52.894;6.492;2022-09-09T09:40:13;18.40;99.90
60309;DHT22;50313;52.894;6.492;2022-09-09T09:42:58;18.40;99.90
60309;DHT22;50313;52.894;6.492;2022-09-09T09:45:29;18.40;99.90
60309;DHT22;50313;52.894;6.492;2022-09-09T09:48:05;18.60;99.90
60309;DHT22;50313;52.894;6.492;2022-09-09T09:50:32;18.60;99.90
60309;DHT22;50313;52.894;6.492;2022-09-09T09:53:01;18.70;99.90
60309;DHT22;50313;52.894;6.492;2022-09-09T09:55:30;18.50;99.90
60309;DHT22;50313;52.894;6.492;2022-09-09T09:58:06;18.50;99.90
60309;DHT22;50313;52.894;6.492;2022-09-09T10:00:33;18.50;99.90
60309;DHT22;50313;52.894;6.492;2022-09-09T10:03:00;18.90;99.90
60309;DHT22;50313;52.894;6.492;2022-09-09T10:05:30;19.00;99.90
60309;DHT22;50313;52.894;6.492;2022-09-09T10:08:04;18.90;99.90
60309;DHT22;50313;52.894;6.492;2022-09-09T10:10:49;18.80;99.90
60309;DHT22;50313;52.894;6.492;2022-09-09T10:13:29;19.00;99.90
60309;DHT22;50313;52.894;6.492;2022-09-09T10:16:21;19.20;99.90
60309;DHT22;50313;52.894;6.492;2022-09-09T10:32:38;19.10;99.90
60309;DHT22;50313;52.894;6.492;2022-09-09T10:40:26;19.30;99.90
60309;DHT22;50313;52.894;6.492;2022-09-09T10:46:06;19.70;99.90
60309;DHT22;50313;52.894;6.492;2022-09-09T10:51:33;19.90;99.90
60309;DHT22;50313;52.894;6.492;2022-09-09T10:54:24;19.70;99.90
60309;DHT22;50313;52.894;6.492;2022-09-09T10:57:01;19.50;99.90
60309;DHT22;50313;52.894;6.492;2022-09-09T10:59:36;19.30;99.90
60309;DHT22;50313;52.894;6.492;2022-09-09T11:02:28;19.40;99.90
60309;DHT22;50313;52.894;6.492;2022-09-09T11:13:57;19.20;99.90
60309;DHT22;50313;52.894;6.492;2022-09-09T11:21:46;19.10;99.90
60309;DHT22;50313;52.894;6.492;2022-09-09T11:24:18;19.30;99.90
60309;DHT22;50313;52.894;6.492;2022-09-09T11:26:55;19.40;99.90
60309;DHT22;50313;52.894;6.492;2022-09-09T11:41:01;19.00;99.90
60309;DHT22;50313;52.894;6.492;2022-09-09T11:43:43;19.00;99.90
60309;DHT22;50313;52.894;6.492;2022-09-09T11:46:10;18.90;99.90
60309;DHT22;50313;52.894;6.492;2022-09-09T11:48:42;18.80;99.90
60309;DHT22;50313;52.894;6.492;2022-09-09T11:53:48;19.00;99.90
60309;DHT22;50313;52.894;6.492;2022-09-09T11:56:25;19.10;99.90
60309;DHT22;50313;52.894;6.492;2022-09-09T11:59:06;19.40;99.90
60309;DHT22;50313;52.894;6.492;2022-09-09T12:01:46;19.60;99.90
60309;DHT22;50313;52.894;6.492;2022-09-09T12:06:52;19.90;99.90
60309;DHT22;50313;52.894;6.492;2022-09-09T12:09:23;20.00;99.90
60309;DHT22;50313;52.894;6.492;2022-09-09T12:11:50;20.10;99.90
60309;DHT22;50313;52.894;6.492;2022-09-09T12:17:19;20.10;99.90
60309;DHT22;50313;52.894;6.492;2022-09-09T12:19:46;20.50;99.90
60309;DHT22;50313;52.894;6.492;2022-09-09T12:25:29;20.80;99.90
60309;DHT22;50313;52.894;6.492;2022-09-09T12:28:09;20.50;99.90
60309;DHT22;50313;52.894;6.492;2022-09-09T12:33:37;20.30;99.90
60309;DHT22;50313;52.894;6.492;2022-09-09T12:36:11;20.10;99.90
60309;DHT22;50313;52.894;6.492;2022-09-09T12:38:40;20.10;99.90
60309;DHT22;50313;52.894;6.492;2022-09-09T12:41:25;20.20;99.90
60309;DHT22;50313;52.894;6.492;2022-09-09T12:43:51;20.80;99.90
60309;DHT22;50313;52.894;6.492;2022-09-09T12:49:02;21.20;99.90
60309;DHT22;50313;52.894;6.492;2022-09-09T12:51:30;20.80;99.90
60309;DHT22;50313;52.894;6.492;2022-09-09T12:53:58;20.40;99.90
60309;DHT22;50313;52.894;6.492;2022-09-09T12:56:27;20.10;99.90
60309;DHT22;50313;52.894;6.492;2022-09-09T12:58:56;20.10;99.90
60309;DHT22;50313;52.894;6.492;2022-09-09T13:01:29;20.40;99.90
60309;DHT22;50313;52.894;6.492;2022-09-09T13:03:55;20.80;99.90
60309;DHT22;50313;52.894;6.492;2022-09-09T13:06:29;20.90;99.90
60309;DHT22;50313;52.894;6.492;2022-09-09T13:08:59;21.10;99.90
60309;DHT22;50313;52.894;6.492;2022-09-09T13:11:33;21.10;99.90
60309;DHT22;50313;52.894;6.492;2022-09-09T13:14:02;21.20;99.90
60309;DHT22;50313;52.894;6.492;2022-09-09T13:16:32;21.20;99.90
60309;DHT22;50313;52.894;6.492;2022-09-09T13:19:08;21.10;99.90
60309;DHT22;50313;52.894;6.492;2022-09-09T13:21:36;20.90;99.90
60309;DHT22;50313;52.894;6.492;2022-09-09T13:24:21;20.80;99.90
60309;DHT22;50313;52.894;6.492;2022-09-09T13:26:57;20.70;99.90
60309;DHT22;50313;52.894;6.492;2022-09-09T13:29:23;20.80;99.90
60309;DHT22;50313;52.894;6.492;2022-09-09T13:31:50;20.80;99.90
60309;DHT22;50313;52.894;6.492;2022-09-09T13:34:32;20.80;99.90
60309;DHT22;50313;52.894;6.492;2022-09-09T13:37:03;20.80;99.90
60309;DHT22;50313;52.894;6.492;2022-09-09T13:39:37;21.10;99.90
60309;DHT22;50313;52.894;6.492;2022-09-09T13:42:04;21.20;99.90
60309;DHT22;50313;52.894;6.492;2022-09-09T13:44:39;21.00;99.90
60309;DHT22;50313;52.894;6.492;2022-09-09T13:47:21;20.60;99.90
60309;DHT22;50313;52.894;6.492;2022-09-09T13:49:48;20.30;99.90
60309;DHT22;50313;52.894;6.492;2022-09-09T13:52:18;19.50;99.90
60309;DHT22;50313;52.894;6.492;2022-09-09T13:54:48;18.70;99.90
60309;DHT22;50313;52.894;6.492;2022-09-09T13:57:25;18.60;99.90
60309;DHT22;50313;52.894;6.492;2022-09-09T13:59:53;18.50;99.90
60309;DHT22;50313;52.894;6.492;2022-09-09T14:02:20;19.00;99.90
60309;DHT22;50313;52.894;6.492;2022-09-09T14:04:48;19.50;99.90
60309;DHT22;50313;52.894;6.492;2022-09-09T14:07:17;20.30;99.90
60309;DHT22;50313;52.894;6.492;2022-09-09T14:09:43;20.40;99.90
60309;DHT22;50313;52.894;6.492;2022-09-09T14:12:13;20.60;99.90
60309;DHT22;50313;52.894;6.492;2022-09-09T14:14:41;20.60;99.90
60309;DHT22;50313;52.894;6.492;2022-09-09T14:17:08;20.80;99.90
60309;DHT22;50313;52.894;6.492;2022-09-09T14:19:33;20.60;99.90
60309;DHT22;50313;52.894;6.492;2022-09-09T14:21:59;20.70;99.90
60309;DHT22;50313;52.894;6.492;2022-09-09T14:24:26;21.00;99.90
60309;DHT22;50313;52.894;6.492;2022-09-09T14:26:53;21.30;99.90
60309;DHT22;50313;52.894;6.492;2022-09-09T14:29:19;20.90;99.90
60309;DHT22;50313;52.894;6.492;2022-09-09T14:31:45;21.00;99.90
60309;DHT22;50313;52.894;6.492;2022-09-09T14:34:11;20.90;99.90
60309;DHT22;50313;52.894;6.492;2022-09-09T14:36:37;20.60;99.90
60309;DHT22;50313;52.894;6.492;2022-09-09T14:39:04;20.30;99.90
60309;DHT22;50313;52.894;6.492;2022-09-09T14:41:31;19.90;99.90
60309;DHT22;50313;52.894;6.492;2022-09-09T14:43:56;20.20;99.90
60309;DHT22;50313;52.894;6.492;2022-09-09T14:46:23;20.10;99.90
60309;DHT22;50313;52.894;6.492;2022-09-09T14:48:49;20.10;99.90
60309;DHT22;50313;52.894;6.492;2022-09-09T14:51:20;20.50;99.90
60309;DHT22;50313;52.894;6.492;2022-09-09T14:53:50;20.80;99.90
60309;DHT22;50313;52.894;6.492;2022-09-09T14:56:19;20.90;99.90
60309;DHT22;50313;52.894;6.492;2022-09-09T14:58:46;20.60;99.90
60309;DHT22;50313;52.894;6.492;2022-09-09T15:01:15;20.70;99.90
60309;DHT22;50313;52.894;6.492;2022-09-09T15:03:42;20.80;99.90
60309;DHT22;50313;52.894;6.492;2022-09-09T15:06:13;20.60;99.90
60309;DHT22;50313;52.894;6.492;2022-09-09T15:08:44;20.40;99.90
60309;DHT22;50313;52.894;6.492;2022-09-09T15:11:11;20.10;99.90
60309;DHT22;50313;52.894;6.492;2022-09-09T15:13:38;19.90;99.90
60309;DHT22;50313;52.894;6.492;2022-09-09T15:18:37;20.10;99.90
60309;DHT22;50313;52.894;6.492;2022-09-09T15:21:13;19.80;99.90
60309;DHT22;50313;52.894;6.492;2022-09-09T15:23:39;19.70;99.90
60309;DHT22;50313;52.894;6.492;2022-09-09T15:26:06;19.50;99.90
60309;DHT22;50313;52.894;6.492;2022-09-09T15:28:34;19.40;99.90
60309;DHT22;50313;52.894;6.492;2022-09-09T15:31:11;19.30;99.90
60309;DHT22;50313;52.894;6.492;2022-09-09T15:33:40;19.30;99.90
60309;DHT22;50313;52.894;6.492;2022-09-09T15:36:24;19.20;99.90
60309;DHT22;50313;52.894;6.492;2022-09-09T15:38:51;19.20;99.90
60309;DHT22;50313;52.894;6.492;2022-09-09T15:41:18;19.10;99.90
60309;DHT22;50313;52.894;6.492;2022-09-09T15:43:45;19.00;99.90
60309;DHT22;50313;52.894;6.492;2022-09-09T15:48:43;18.80;99.90
60309;DHT22;50313;52.894;6.492;2022-09-09T15:51:10;18.70;99.90
60309;DHT22;50313;52.894;6.492;2022-09-09T15:53:39;18.60;99.90
60309;DHT22;50313;52.894;6.492;2022-09-09T15:56:06;18.50;99.90
60309;DHT22;50313;52.894;6.492;2022-09-09T15:58:32;18.20;99.90
60309;DHT22;50313;52.894;6.492;2022-09-09T16:01:03;17.90;99.90
60309;DHT22;50313;52.894;6.492;2022-09-09T16:03:33;17.70;99.90
60309;DHT22;50313;52.894;6.492;2022-09-09T16:05:59;17.60;99.90
60309;DHT22;50313;52.894;6.492;2022-09-09T16:08:31;17.50;99.90
60309;DHT22;50313;52.894;6.492;2022-09-09T16:10:56;17.50;99.90
60309;DHT22;50313;52.894;6.492;2022-09-09T16:13:29;17.50;99.90
60309;DHT22;50313;52.894;6.492;2022-09-09T16:15:58;17.50;99.90
60309;DHT22;50313;52.894;6.492;2022-09-09T16:18:24;17.50;99.90
60309;DHT22;50313;52.894;6.492;2022-09-09T16:20:55;17.80;99.90
60309;DHT22;50313;52.894;6.492;2022-09-09T16:23:21;18.20;99.90
60309;DHT22;50313;52.894;6.492;2022-09-09T16:25:56;18.20;99.90
60309;DHT22;50313;52.894;6.492;2022-09-09T16:28:22;18.40;99.90
60309;DHT22;50313;52.894;6.492;2022-09-09T16:30:48;18.30;99.90
60309;DHT22;50313;52.894;6.492;2022-09-09T16:33:15;18.20;99.90
60309;DHT22;50313;52.894;6.492;2022-09-09T16:35:41;18.30;99.90
60309;DHT22;50313;52.894;6.492;2022-09-09T16:38:07;18.40;99.90
60309;DHT22;50313;52.894;6.492;2022-09-09T16:40:37;18.50;99.90
60309;DHT22;50313;52.894;6.492;2022-09-09T16:43:04;18.60;99.90
60309;DHT22;50313;52.894;6.492;2022-09-09T16:45:31;18.70;99.90
60309;DHT22;50313;52.894;6.492;2022-09-09T16:47:58;18.60;99.90
60309;DHT22;50313;52.894;6.492;2022-09-09T16:50:26;18.50;99.90
60309;DHT22;50313;52.894;6.492;2022-09-09T16:52:52;18.50;99.90
60309;DHT22;50313;52.894;6.492;2022-09-09T16:55:18;18.50;99.90
60309;DHT22;50313;52.894;6.492;2022-09-09T16:57:47;18.40;99.90
60309;DHT22;50313;52.894;6.492;2022-09-09T17:00:15;18.40;99.90
60309;DHT22;50313;52.894;6.492;2022-09-09T17:02:42;18.30;99.90
60309;DHT22;50313;52.894;6.492;2022-09-09T17:05:08;18.20;99.90
60309;DHT22;50313;52.894;6.492;2022-09-09T17:07:35;18.10;99.90
60309;DHT22;50313;52.894;6.492;2022-09-09T17:10:01;18.00;99.90
60309;DHT22;50313;52.894;6.492;2022-09-09T17:12:27;17.90;99.90
60309;DHT22;50313;52.894;6.492;2022-09-09T17:14:53;17.80;99.90
60309;DHT22;50313;52.894;6.492;2022-09-09T17:17:20;17.70;99.90
60309;DHT22;50313;52.894;6.492;2022-09-09T17:19:46;17.70;99.90
60309;DHT22;50313;52.894;6.492;2022-09-09T17:22:12;17.70;99.90
60309;DHT22;50313;52.894;6.492;2022-09-09T17:24:38;17.70;99.90
60309;DHT22;50313;52.894;6.492;2022-09-09T17:27:04;17.60;99.90
60309;DHT22;50313;52.894;6.492;2022-09-09T17:29:30;17.60;99.90
60309;DHT22;50313;52.894;6.492;2022-09-09T17:31:55;17.60;99.90
60309;DHT22;50313;52.894;6.492;2022-09-09T17:34:21;17.60;99.90
60309;DHT22;50313;52.894;6.492;2022-09-09T17:36:48;17.60;99.90
60309;DHT22;50313;52.894;6.492;2022-09-09T17:39:14;17.50;99.90
60309;DHT22;50313;52.894;6.492;2022-09-09T17:41:40;17.50;99.90
60309;DHT22;50313;52.894;6.492;2022-09-09T17:44:07;17.50;99.90
60309;DHT22;50313;52.894;6.492;2022-09-09T17:46:34;17.40;99.90
60309;DHT22;50313;52.894;6.492;2022-09-09T17:49:05;17.30;99.90
60309;DHT22;50313;52.894;6.492;2022-09-09T17:51:32;17.30;99.90
60309;DHT22;50313;52.894;6.492;2022-09-09T17:54:04;17.20;99.90
60309;DHT22;50313;52.894;6.492;2022-09-09T17:56:33;17.10;99.90
60309;DHT22;50313;52.894;6.492;2022-09-09T17:59:00;17.10;99.90
60309;DHT22;50313;52.894;6.492;2022-09-09T18:01:31;17.00;99.90
60309;DHT22;50313;52.894;6.492;2022-09-09T18:04:00;17.00;99.90
60309;DHT22;50313;52.894;6.492;2022-09-09T18:06:29;17.00;99.90
60309;DHT22;50313;52.894;6.492;2022-09-09T18:09:04;16.90;99.90
60309;DHT22;50313;52.894;6.492;2022-09-09T18:11:33;16.90;99.90
60309;DHT22;50313;52.894;6.492;2022-09-09T18:14:01;16.80;99.90
60309;DHT22;50313;52.894;6.492;2022-09-09T18:16:30;16.80;99.90
60309;DHT22;50313;52.894;6.492;2022-09-09T18:18:57;16.80;99.90
60309;DHT22;50313;52.894;6.492;2022-09-09T18:21:23;16.80;99.90
60309;DHT22;50313;52.894;6.492;2022-09-09T18:23:51;16.70;99.90